Terminal Aerodrome Forecast
Issued by NWS

Home | Current Version | Previous Version | Text Only | Print | Product List | Glossary Off
Versions: 1 2 3 4 5 6 7 8 9 10 11 12 13 14 15 16 17 18

000
FTUS43 KABR 290800 AAA
TAFMBG
TAF AMD
KMBG 290824Z 2908/3006 32015G23KT P6SM OVC025
     FM291200 35014KT P6SM OVC025
     FM291800 02008KT P6SM BKN035
     FM292300 09006KT P6SM SKC=

USA.gov is the U.S. government's official web portal to all federal, state and local government web resources and services.